Time;durP1;ratioP1;P1;durP2;ratioP2;P2;SDS_P1;SDS_P2;PMS_P1;PMS_P2;Temp;Humidity;BMP_temperature;BMP_pressure;BME280_temperature;BME280_humidity;BME280_pressure;Samples;Min_cycle;Max_cycle;Signal;HPM_P1;HPM_P2
2021/04/25 00:00:59;;;;;;;10.03;4.83;;;;;;;;;;4981444;28;20227;-79
2021/04/25 00:03:25;;;;;;;10.50;5.13;;;;;;;;;;4997229;28;20180;-78
2021/04/25 00:05:51;;;;;;;11.13;5.07;;;;;;;;;;4997865;28;20198;-79
2021/04/25 00:08:17;;;;;;;10.13;4.93;;;;;;;;;;4981094;28;20180;-79
2021/04/25 00:10:43;;;;;;;10.57;4.90;;;;;;;;;;4997041;28;20604;-79
2021/04/25 00:13:10;;;;;;;9.10;5.00;;;;;;;;;;4980684;28;20565;-79
2021/04/25 00:15:38;;;;;;;10.27;5.70;;;;;;;;;;4980354;28;20211;-78
2021/04/25 00:18:04;;;;;;;10.50;5.40;;;;;;;;;;4997123;28;20548;-79
2021/04/25 00:20:30;;;;;;;9.93;5.10;;;;;;;;;;4997266;28;20191;-79
2021/04/25 00:22:56;;;;;;;9.60;5.33;;;;;;;;;;4980293;28;20187;-78
2021/04/25 00:25:22;;;;;;;8.40;4.97;;;;;;;;;;4997137;28;20599;-79
2021/04/25 00:27:48;;;;;;;10.90;5.30;;;;;;;;;;4996907;28;20252;-79
2021/04/25 00:30:15;;;;;;;9.20;4.60;;;;;;;;;;4996546;28;20632;-80
2021/04/25 00:32:41;;;;;;;11.07;4.93;;;;;;;;;;4996846;28;20227;-79
2021/04/25 00:35:08;;;;;;;9.80;4.77;;;;;;;;;;4996774;28;20207;-79
2021/04/25 00:37:34;;;;;;;11.40;5.23;;;;;;;;;;4996473;28;20262;-79
2021/04/25 00:40:00;;;;;;;9.87;4.43;;;;;;;;;;4996179;28;20183;-79
2021/04/25 00:42:26;;;;;;;9.97;4.63;;;;;;;;;;4995877;28;20202;-79
2021/04/25 00:44:52;;;;;;;9.37;4.77;;;;;;;;;;4996462;28;20235;-78
2021/04/25 00:47:18;;;;;;;8.30;4.80;;;;;;;;;;4981454;28;20195;-78
2021/04/25 00:49:44;;;;;;;11.20;4.93;;;;;;;;;;4980533;28;20636;-79
2021/04/25 00:52:10;;;;;;;11.50;4.83;;;;;;;;;;4980771;28;20195;-79
2021/04/25 00:54:36;;;;;;;10.20;4.73;;;;;;;;;;4983606;28;20185;-79
2021/04/25 00:57:03;;;;;;;12.47;4.90;;;;;;;;;;4981428;28;20215;-80
2021/04/25 00:59:29;;;;;;;11.83;5.00;;;;;;;;;;4981536;28;20191;-80
2021/04/25 01:01:55;;;;;;;9.87;5.23;;;;;;;;;;4998038;28;20209;-80
2021/04/25 01:04:21;;;;;;;10.57;5.10;;;;;;;;;;4981596;28;20190;-81
2021/04/25 01:06:47;;;;;;;10.33;5.37;;;;;;;;;;4980935;28;20250;-80
2021/04/25 01:09:13;;;;;;;8.70;5.03;;;;;;;;;;4980890;28;20187;-81
2021/04/25 01:11:39;;;;;;;7.57;4.40;;;;;;;;;;4982194;28;20183;-81
2021/04/25 01:14:05;;;;;;;12.30;4.73;;;;;;;;;;4996681;28;20288;-79
2021/04/25 01:16:31;;;;;;;10.07;4.50;;;;;;;;;;4980873;28;20353;-80
2021/04/25 01:18:57;;;;;;;11.97;4.80;;;;;;;;;;4980262;28;20183;-81
2021/04/25 01:21:23;;;;;;;9.13;4.57;;;;;;;;;;4980262;28;20179;-80
2021/04/25 01:23:49;;;;;;;14.93;4.33;;;;;;;;;;4980406;28;20222;-80
2021/04/25 01:26:15;;;;;;;10.43;4.43;;;;;;;;;;4979777;28;20363;-79
2021/04/25 01:28:41;;;;;;;8.27;4.70;;;;;;;;;;4997023;28;20580;-79
2021/04/25 01:31:07;;;;;;;10.27;4.47;;;;;;;;;;4980744;28;20246;-79
2021/04/25 01:33:34;;;;;;;10.30;4.53;;;;;;;;;;4980904;28;20224;-80
2021/04/25 01:36:00;;;;;;;9.60;4.70;;;;;;;;;;4996123;28;20721;-80
2021/04/25 01:38:26;;;;;;;10.13;4.10;;;;;;;;;;4997070;28;20257;-80
2021/04/25 01:40:52;;;;;;;7.20;4.50;;;;;;;;;;4979964;28;20181;-79
2021/04/25 01:43:18;;;;;;;11.17;4.53;;;;;;;;;;4979984;28;20190;-78
2021/04/25 01:45:44;;;;;;;8.20;4.73;;;;;;;;;;4979178;28;20741;-80
2021/04/25 01:48:10;;;;;;;10.47;4.93;;;;;;;;;;4980918;28;20554;-79
2021/04/25 01:50:36;;;;;;;9.10;4.47;;;;;;;;;;4980562;28;20238;-79
2021/04/25 01:53:05;;;;;;;10.43;4.30;;;;;;;;;;4980599;28;20184;-80
2021/04/25 01:55:31;;;;;;;9.93;4.60;;;;;;;;;;4980251;28;20241;-78
2021/04/25 01:57:59;;;;;;;9.13;4.70;;;;;;;;;;4995972;28;20291;-79
2021/04/25 02:00:35;;;;;;;9.30;4.97;;;;;;;;;;4996074;28;20271;-79
2021/04/25 02:03:01;;;;;;;7.70;4.73;;;;;;;;;;4980144;28;20214;-78
2021/04/25 02:05:27;;;;;;;10.17;5.17;;;;;;;;;;4979555;28;20258;-81
2021/04/25 02:07:53;;;;;;;10.13;4.83;;;;;;;;;;4979033;28;20184;-79
2021/04/25 02:10:19;;;;;;;8.83;4.63;;;;;;;;;;4978917;28;20187;-80
2021/04/25 02:12:45;;;;;;;12.33;5.00;;;;;;;;;;4979456;28;20558;-80
2021/04/25 02:15:13;;;;;;;11.93;4.63;;;;;;;;;;4995998;28;20663;-80
2021/04/25 02:17:41;;;;;;;8.10;3.93;;;;;;;;;;4995531;28;20273;-81
2021/04/25 02:20:07;;;;;;;7.50;4.10;;;;;;;;;;4979441;28;20188;-78
2021/04/25 02:22:33;;;;;;;10.57;4.20;;;;;;;;;;4978609;28;20643;-79
2021/04/25 02:25:00;;;;;;;6.50;3.90;;;;;;;;;;4978393;28;20184;-78
2021/04/25 02:27:26;;;;;;;6.77;3.20;;;;;;;;;;4978165;28;20196;-78
2021/04/25 02:29:52;;;;;;;8.50;3.40;;;;;;;;;;4976519;28;20183;-79
2021/04/25 02:32:18;;;;;;;9.90;3.60;;;;;;;;;;4975145;28;20624;-78
2021/04/25 02:34:44;;;;;;;7.70;3.37;;;;;;;;;;4993523;28;20187;-78
2021/04/25 02:37:10;;;;;;;6.53;3.17;;;;;;;;;;4993030;28;20294;-78
2021/04/25 02:39:38;;;;;;;9.80;3.87;;;;;;;;;;4991837;28;20172;-78
2021/04/25 02:42:04;;;;;;;5.90;2.87;;;;;;;;;;4976545;28;20180;-79
2021/04/25 02:44:30;;;;;;;8.00;3.30;;;;;;;;;;4976575;28;20274;-79
2021/04/25 02:46:56;;;;;;;6.53;3.50;;;;;;;;;;4994767;28;20219;-79
2021/04/25 02:49:22;;;;;;;7.27;3.30;;;;;;;;;;4979431;28;20183;-79
2021/04/25 02:51:48;;;;;;;5.67;2.97;;;;;;;;;;4979375;28;20611;-79
2021/04/25 02:54:14;;;;;;;9.00;2.90;;;;;;;;;;4979641;28;20280;-79
2021/04/25 02:56:41;;;;;;;6.03;3.17;;;;;;;;;;4996024;28;20210;-78
2021/04/25 02:59:07;;;;;;;5.90;2.97;;;;;;;;;;4998755;28;20175;-80
2021/04/25 03:01:33;;;;;;;5.77;2.93;;;;;;;;;;4983486;28;20203;-80
2021/04/25 03:03:59;;;;;;;6.50;2.80;;;;;;;;;;4999779;28;20180;-80
2021/04/25 03:06:25;;;;;;;7.47;2.93;;;;;;;;;;4983181;28;20208;-80
2021/04/25 03:08:51;;;;;;;5.60;2.83;;;;;;;;;;4999720;28;20646;-79
2021/04/25 03:11:17;;;;;;;6.13;2.97;;;;;;;;;;5000514;28;20644;-79
2021/04/25 03:13:43;;;;;;;8.13;3.17;;;;;;;;;;4999896;28;20546;-79
2021/04/25 03:16:09;;;;;;;7.40;2.93;;;;;;;;;;4983781;28;20262;-78
2021/04/25 03:18:35;;;;;;;5.23;2.83;;;;;;;;;;4983396;28;20248;-79
2021/04/25 03:21:01;;;;;;;5.67;3.10;;;;;;;;;;5001558;28;20190;-79
2021/04/25 03:23:27;;;;;;;8.83;2.50;;;;;;;;;;4983143;28;20650;-78
2021/04/25 03:25:53;;;;;;;9.43;3.00;;;;;;;;;;4982050;28;20219;-78
2021/04/25 03:28:20;;;;;;;8.57;3.23;;;;;;;;;;5000987;23;20241;-76
2021/04/25 03:30:46;;;;;;;4.90;2.60;;;;;;;;;;4994722;28;20175;-79
2021/04/25 03:33:12;;;;;;;4.40;2.90;;;;;;;;;;4978225;28;20175;-78
2021/04/25 03:35:38;;;;;;;5.40;2.80;;;;;;;;;;4994274;28;20176;-76
2021/04/25 03:38:04;;;;;;;8.00;3.17;;;;;;;;;;4977455;28;20215;-77
2021/04/25 03:40:30;;;;;;;8.20;2.90;;;;;;;;;;4978053;28;20183;-77
2021/04/25 03:42:56;;;;;;;6.23;3.10;;;;;;;;;;4994251;28;20180;-76
2021/04/25 03:45:22;;;;;;;9.47;2.90;;;;;;;;;;4993989;28;20215;-75
2021/04/25 03:47:48;;;;;;;5.20;3.30;;;;;;;;;;4977771;28;20207;-75
2021/04/25 03:50:14;;;;;;;6.77;3.13;;;;;;;;;;4977912;28;20218;-77
2021/04/25 03:52:44;;;;;;;5.07;2.60;;;;;;;;;;4994098;28;20272;-76
2021/04/25 03:55:10;;;;;;;7.50;3.40;;;;;;;;;;4993792;28;20188;-75
2021/04/25 03:57:36;;;;;;;6.97;3.30;;;;;;;;;;4977609;28;20233;-76
2021/04/25 04:00:03;;;;;;;7.03;3.23;;;;;;;;;;4977735;28;20188;-75
2021/04/25 04:02:29;;;;;;;5.83;2.90;;;;;;;;;;4977664;28;20274;-77
2021/04/25 04:04:55;;;;;;;7.33;2.93;;;;;;;;;;4993947;28;20264;-76
2021/04/25 04:07:21;;;;;;;3.80;2.13;;;;;;;;;;4993316;28;20204;-77
2021/04/25 04:09:47;;;;;;;8.27;2.67;;;;;;;;;;4993157;28;20238;-76
2021/04/25 04:12:13;;;;;;;5.47;2.50;;;;;;;;;;4977892;28;20272;-77
2021/04/25 04:14:39;;;;;;;6.30;2.60;;;;;;;;;;4993696;28;20184;-78
2021/04/25 04:17:05;;;;;;;7.57;2.63;;;;;;;;;;4992873;28;20641;-79
2021/04/25 04:19:31;;;;;;;8.17;2.77;;;;;;;;;;4993600;28;20205;-79
2021/04/25 04:21:57;;;;;;;5.27;2.87;;;;;;;;;;4993551;28;20183;-78
2021/04/25 04:24:23;;;;;;;8.47;2.70;;;;;;;;;;4993675;28;20179;-79
2021/04/25 04:26:49;;;;;;;6.07;2.33;;;;;;;;;;4977125;28;20227;-79
2021/04/25 04:29:14;;;;;;;5.07;2.50;;;;;;;;;;4977568;28;20652;-79
2021/04/25 04:31:40;;;;;;;6.50;3.10;;;;;;;;;;4993159;28;20673;-78
2021/04/25 04:34:06;;;;;;;7.53;2.70;;;;;;;;;;4993722;28;20665;-77
2021/04/25 04:36:32;;;;;;;7.73;2.67;;;;;;;;;;4976553;28;20677;-78
2021/04/25 04:38:58;;;;;;;10.70;3.00;;;;;;;;;;4994459;28;20711;-78
2021/04/25 04:41:24;;;;;;;6.20;2.57;;;;;;;;;;4993195;28;20575;-79
2021/04/25 04:43:50;;;;;;;6.47;3.07;;;;;;;;;;4976943;28;20262;-79
2021/04/25 04:46:16;;;;;;;6.73;2.50;;;;;;;;;;4976484;28;20241;-79
2021/04/25 04:48:42;;;;;;;7.53;2.53;;;;;;;;;;4992943;28;20204;-79
2021/04/25 04:51:08;;;;;;;7.50;2.80;;;;;;;;;;4976757;28;20230;-78
2021/04/25 04:53:34;;;;;;;12.63;3.10;;;;;;;;;;4992712;28;20195;-78
2021/04/25 04:56:00;;;;;;;6.53;2.93;;;;;;;;;;4992723;28;20585;-78
2021/04/25 04:58:26;;;;;;;5.57;2.93;;;;;;;;;;4992759;28;20247;-79
2021/04/25 05:00:52;;;;;;;7.37;2.83;;;;;;;;;;4992968;28;20188;-79
2021/04/25 05:03:18;;;;;;;5.27;2.83;;;;;;;;;;4976345;28;20220;-76
2021/04/25 05:05:44;;;;;;;5.97;2.70;;;;;;;;;;4976411;28;20191;-79
2021/04/25 05:08:10;;;;;;;6.70;2.77;;;;;;;;;;4991810;28;20736;-79
2021/04/25 05:10:35;;;;;;;8.80;3.63;;;;;;;;;;4992648;28;20267;-79
2021/04/25 05:13:01;;;;;;;5.53;3.00;;;;;;;;;;4992278;28;20671;-77
2021/04/25 05:15:27;;;;;;;5.73;2.80;;;;;;;;;;4993551;28;20648;-78
2021/04/25 05:17:53;;;;;;;4.57;2.77;;;;;;;;;;4976295;28;20215;-78
2021/04/25 05:20:19;;;;;;;5.93;2.60;;;;;;;;;;4975455;28;20184;-77
2021/04/25 05:22:45;;;;;;;5.13;2.80;;;;;;;;;;4993445;28;20180;-78
2021/04/25 05:25:11;;;;;;;8.00;2.60;;;;;;;;;;4976162;28;20335;-79
2021/04/25 05:27:37;;;;;;;9.20;2.57;;;;;;;;;;4991905;28;20225;-79
2021/04/25 05:30:04;;;;;;;5.23;2.67;;;;;;;;;;4992087;28;20404;-78
2021/04/25 05:32:30;;;;;;;9.53;2.57;;;;;;;;;;4976039;28;20281;-76
2021/04/25 05:34:56;;;;;;;7.20;2.60;;;;;;;;;;4992120;28;20326;-75
2021/04/25 05:37:21;;;;;;;7.77;2.57;;;;;;;;;;4975615;28;20220;-79
2021/04/25 05:39:47;;;;;;;4.37;2.20;;;;;;;;;;4975866;28;20189;-79
2021/04/25 05:42:13;;;;;;;6.37;3.00;;;;;;;;;;4991895;28;20818;-78
2021/04/25 05:44:39;;;;;;;4.73;2.70;;;;;;;;;;4975875;28;20188;-78
2021/04/25 05:47:06;;;;;;;6.10;2.50;;;;;;;;;;4991591;28;20209;-79
2021/04/25 05:49:32;;;;;;;6.37;2.23;;;;;;;;;;4975761;28;20190;-77
2021/04/25 05:51:58;;;;;;;6.83;2.00;;;;;;;;;;4975515;28;20542;-77
2021/04/25 05:54:24;;;;;;;6.17;2.20;;;;;;;;;;4991981;28;20194;-79
2021/04/25 05:56:50;;;;;;;4.00;2.10;;;;;;;;;;4975248;28;20204;-79
2021/04/25 05:59:16;;;;;;;7.23;2.40;;;;;;;;;;4991671;28;20175;-79
2021/04/25 06:01:42;;;;;;;8.53;2.40;;;;;;;;;;4991584;28;20183;-79
2021/04/25 06:04:08;;;;;;;6.27;2.07;;;;;;;;;;4992726;28;20223;-79
2021/04/25 06:06:34;;;;;;;5.67;2.03;;;;;;;;;;4991293;28;20183;-77
2021/04/25 06:09:00;;;;;;;6.30;2.20;;;;;;;;;;4991632;28;20214;-76
2021/04/25 06:11:26;;;;;;;6.27;2.20;;;;;;;;;;4992777;28;20215;-79
2021/04/25 06:13:52;;;;;;;5.17;1.97;;;;;;;;;;4991593;28;20644;-79
2021/04/25 06:16:18;;;;;;;5.13;2.17;;;;;;;;;;4992497;28;20270;-78
2021/04/25 06:18:45;;;;;;;3.83;1.80;;;;;;;;;;4974939;28;20259;-78
2021/04/25 06:21:11;;;;;;;3.40;1.80;;;;;;;;;;4991388;28;20190;-77
2021/04/25 06:23:37;;;;;;;2.87;1.80;;;;;;;;;;4991421;28;20182;-76
2021/04/25 06:26:03;;;;;;;4.40;1.83;;;;;;;;;;4975419;28;20634;-77
2021/04/25 06:28:29;;;;;;;5.47;2.10;;;;;;;;;;4974940;28;20258;-79
2021/04/25 06:30:56;;;;;;;9.50;2.30;;;;;;;;;;4989381;28;20182;-77
2021/04/25 06:33:22;;;;;;;6.97;2.17;;;;;;;;;;4990680;28;20720;-79
2021/04/25 06:35:49;;;;;;;6.37;1.80;;;;;;;;;;4990758;28;20191;-77
2021/04/25 06:38:15;;;;;;;4.87;1.70;;;;;;;;;;4990692;28;20200;-79
2021/04/25 06:40:41;;;;;;;3.83;1.60;;;;;;;;;;4990842;28;20644;-80
2021/04/25 06:43:07;;;;;;;6.03;1.73;;;;;;;;;;4990542;28;20310;-77
2021/04/25 06:45:34;;;;;;;2.20;1.60;;;;;;;;;;4966303;28;20186;-79
2021/04/25 06:48:00;;;;;;;7.30;1.80;;;;;;;;;;4971422;28;20269;-75
2021/04/25 06:50:26;;;;;;;4.77;1.80;;;;;;;;;;4971475;28;20569;-75
2021/04/25 06:52:52;;;;;;;5.30;1.70;;;;;;;;;;4973187;28;20216;-75
2021/04/25 06:55:19;;;;;;;5.83;1.70;;;;;;;;;;4971667;28;20188;-76
2021/04/25 06:57:45;;;;;;;4.47;1.63;;;;;;;;;;4971763;28;20245;-76
2021/04/25 07:00:12;;;;;;;5.63;1.90;;;;;;;;;;4988108;28;20181;-76
2021/04/25 07:02:38;;;;;;;4.97;1.70;;;;;;;;;;4992279;28;20172;-76
2021/04/25 07:05:04;;;;;;;5.70;1.57;;;;;;;;;;4974735;28;20188;-76
2021/04/25 07:07:30;;;;;;;6.07;1.67;;;;;;;;;;4990683;28;20196;-75
2021/04/25 07:09:56;;;;;;;6.27;1.70;;;;;;;;;;4974455;28;20591;-76
2021/04/25 07:12:22;;;;;;;3.37;1.57;;;;;;;;;;4992243;28;20205;-75
2021/04/25 07:14:48;;;;;;;5.47;1.80;;;;;;;;;;4974664;28;20651;-75
2021/04/25 07:17:14;;;;;;;4.27;1.80;;;;;;;;;;4991813;28;20216;-76
2021/04/25 07:19:40;;;;;;;5.17;1.90;;;;;;;;;;4990968;28;20660;-77
2021/04/25 07:22:06;;;;;;;5.87;2.33;;;;;;;;;;4990692;28;20172;-77
2021/04/25 07:24:32;;;;;;;6.23;1.60;;;;;;;;;;4974822;28;20183;-79
2021/04/25 07:26:58;;;;;;;6.00;1.60;;;;;;;;;;4974469;28;20289;-79
2021/04/25 07:29:24;;;;;;;7.67;1.93;;;;;;;;;;4974441;28;20223;-73
2021/04/25 07:31:50;;;;;;;5.67;1.80;;;;;;;;;;4989630;28;20180;-72
2021/04/25 07:34:16;;;;;;;6.23;2.00;;;;;;;;;;4990127;28;20210;-74
2021/04/25 07:36:42;;;;;;;4.00;1.70;;;;;;;;;;5006243;28;20679;-73
2021/04/25 07:39:08;;;;;;;5.80;1.90;;;;;;;;;;4990604;28;20682;-73
2021/04/25 07:41:34;;;;;;;5.83;2.00;;;;;;;;;;4991649;28;20271;-74
2021/04/25 07:44:00;;;;;;;3.90;1.77;;;;;;;;;;4975637;28;20697;-74
2021/04/25 07:46:26;;;;;;;5.23;2.00;;;;;;;;;;4995079;28;20258;-74
2021/04/25 07:48:52;;;;;;;3.23;1.60;;;;;;;;;;4995337;28;20238;-74
2021/04/25 07:51:18;;;;;;;5.07;1.87;;;;;;;;;;4994826;28;20180;-72
2021/04/25 07:53:44;;;;;;;3.97;1.80;;;;;;;;;;4994140;28;20180;-72
2021/04/25 07:56:12;;;;;;;6.30;2.17;;;;;;;;;;4993352;28;20203;-73
2021/04/25 07:58:38;;;;;;;4.00;1.80;;;;;;;;;;4994513;28;20298;-72
2021/04/25 08:01:03;;;;;;;6.33;2.37;;;;;;;;;;4977535;28;20264;-72
2021/04/25 08:03:29;;;;;;;3.40;1.83;;;;;;;;;;4993646;28;20184;-73
2021/04/25 08:05:55;;;;;;;5.10;2.03;;;;;;;;;;4993111;28;20176;-73
2021/04/25 08:08:21;;;;;;;4.10;1.93;;;;;;;;;;5009622;28;20200;-79
2021/04/25 08:10:47;;;;;;;4.97;2.10;;;;;;;;;;5009869;28;20184;-72
2021/04/25 08:13:13;;;;;;;4.63;1.80;;;;;;;;;;4993625;28;20192;-73
2021/04/25 08:15:39;;;;;;;4.20;1.90;;;;;;;;;;5009956;28;20654;-72
2021/04/25 08:18:05;;;;;;;7.63;3.43;;;;;;;;;;5009432;28;20564;-77
2021/04/25 08:20:31;;;;;;;5.20;1.77;;;;;;;;;;5009856;28;20231;-74
2021/04/25 08:22:57;;;;;;;4.43;1.67;;;;;;;;;;4994603;28;20254;-75
2021/04/25 08:25:23;;;;;;;6.53;1.90;;;;;;;;;;4994926;28;20180;-76
2021/04/25 08:27:50;;;;;;;4.87;1.70;;;;;;;;;;4994129;28;20215;-76
2021/04/25 08:30:16;;;;;;;5.23;1.50;;;;;;;;;;5009530;28;20539;-76
2021/04/25 08:32:42;;;;;;;5.80;1.67;;;;;;;;;;5006314;28;20707;-75
2021/04/25 08:35:08;;;;;;;4.73;1.50;;;;;;;;;;4993255;28;20262;-76
2021/04/25 08:37:34;;;;;;;4.17;1.60;;;;;;;;;;4990513;28;20212;-75
2021/04/25 08:40:00;;;;;;;7.57;1.40;;;;;;;;;;4993167;28;20187;-74
2021/04/25 08:42:26;;;;;;;4.50;1.40;;;;;;;;;;4976706;28;20633;-73
2021/04/25 08:44:54;;;;;;;6.23;1.47;;;;;;;;;;4993182;28;20610;-75
2021/04/25 08:47:20;;;;;;;7.63;1.73;;;;;;;;;;4992906;28;20210;-77
2021/04/25 08:49:47;;;;;;;7.03;1.30;;;;;;;;;;4993151;28;20189;-76
2021/04/25 08:52:13;;;;;;;2.27;1.23;;;;;;;;;;5009408;28;20565;-72
2021/04/25 08:54:39;;;;;;;4.97;1.60;;;;;;;;;;4993834;28;20182;-76
2021/04/25 08:57:06;;;;;;;4.23;1.30;;;;;;;;;;5008303;28;20204;-79
2021/04/25 08:59:32;;;;;;;5.43;1.60;;;;;;;;;;5009229;28;20180;-75
2021/04/25 09:01:58;;;;;;;4.93;1.43;;;;;;;;;;4994128;28;20181;-76
2021/04/25 09:04:24;;;;;;;6.70;1.70;;;;;;;;;;4992742;28;20258;-76
2021/04/25 09:06:56;;;;;;;2.77;1.33;;;;;;;;;;5009002;28;20790;-76
2021/04/25 09:09:22;;;;;;;7.57;1.80;;;;;;;;;;4992636;28;20215;-75
2021/04/25 09:11:51;;;;;;;5.40;1.60;;;;;;;;;;4993978;28;20261;-75
2021/04/25 09:14:18;;;;;;;5.57;1.53;;;;;;;;;;4993552;28;20187;-74
2021/04/25 09:16:45;;;;;;;6.17;1.50;;;;;;;;;;4991592;28;20204;-75
2021/04/25 09:19:11;;;;;;;6.80;1.70;;;;;;;;;;4992918;28;20208;-78
2021/04/25 09:21:56;;;;;;;6.50;2.03;;;;;;;;;;4976740;28;20191;-79
2021/04/25 09:24:23;;;;;;;8.37;1.80;;;;;;;;;;4993759;28;20173;-73
2021/04/25 09:26:50;;;;;;;6.57;1.40;;;;;;;;;;5019458;23;20205;-75
2021/04/25 09:29:16;;;;;;;5.90;1.43;;;;;;;;;;4990235;28;20294;-76
2021/04/25 09:31:42;;;;;;;4.43;1.47;;;;;;;;;;4992158;28;20552;-76
2021/04/25 09:34:08;;;;;;;4.87;1.60;;;;;;;;;;4992208;28;20291;-74
2021/04/25 09:36:34;;;;;;;5.83;1.63;;;;;;;;;;4975817;28;20275;-75
2021/04/25 09:39:13;;;;;;;5.80;1.60;;;;;;;;;;4992483;28;20216;-75
2021/04/25 09:41:39;;;;;;;5.33;1.60;;;;;;;;;;4993115;28;20547;-75
2021/04/25 09:44:06;;;;;;;6.40;1.37;;;;;;;;;;4975978;28;20180;-75
2021/04/25 09:46:51;;;;;;;4.93;1.60;;;;;;;;;;4974805;28;20236;-75
2021/04/25 09:49:35;;;;;;;5.33;1.70;;;;;;;;;;4991777;28;20200;-75
2021/04/25 09:52:01;;;;;;;5.97;1.80;;;;;;;;;;4992261;28;20777;-76
2021/04/25 09:54:27;;;;;;;7.13;1.73;;;;;;;;;;4991599;28;20181;-75
2021/04/25 09:56:53;;;;;;;4.20;1.57;;;;;;;;;;4991261;28;20189;-76
2021/04/25 09:59:19;;;;;;;4.40;1.70;;;;;;;;;;4991149;28;20177;-75
2021/04/25 10:01:45;;;;;;;7.87;1.53;;;;;;;;;;4990613;28;20254;-75
2021/04/25 10:04:31;;;;;;;3.90;1.20;;;;;;;;;;4990489;28;20261;-75
2021/04/25 10:06:57;;;;;;;5.93;1.53;;;;;;;;;;4974022;28;20181;-76
2021/04/25 10:09:24;;;;;;;5.53;1.30;;;;;;;;;;4991730;28;20193;-75
2021/04/25 10:11:50;;;;;;;5.50;1.50;;;;;;;;;;4990775;28;20186;-75
2021/04/25 10:14:16;;;;;;;4.50;1.30;;;;;;;;;;4975764;28;20652;-75
2021/04/25 10:16:43;;;;;;;4.93;2.00;;;;;;;;;;4991429;28;20312;-76
2021/04/25 10:19:12;;;;;;;6.60;1.80;;;;;;;;;;4975438;28;20213;-75
2021/04/25 10:21:38;;;;;;;6.37;1.70;;;;;;;;;;4978554;28;20179;-76
2021/04/25 10:24:05;;;;;;;7.30;1.73;;;;;;;;;;4973804;28;20570;-76
2021/04/25 10:26:32;;;;;;;6.23;1.30;;;;;;;;;;4975841;28;20516;-76
2021/04/25 10:28:59;;;;;;;6.40;1.40;;;;;;;;;;4991318;28;20274;-75
2021/04/25 10:31:28;;;;;;;5.47;1.90;;;;;;;;;;4991208;28;20618;-73
2021/04/25 10:33:59;;;;;;;6.77;1.80;;;;;;;;;;4989365;28;20245;-75
2021/04/25 10:36:46;;;;;;;6.90;1.30;;;;;;;;;;4991306;28;20229;-74
2021/04/25 10:39:30;;;;;;;9.47;1.60;;;;;;;;;;4992887;28;20245;-73
2021/04/25 10:42:17;;;;;;;6.07;1.47;;;;;;;;;;4992741;28;20205;-74
2021/04/25 10:45:05;;;;;;;9.93;1.93;;;;;;;;;;4992796;28;20676;-74
2021/04/25 10:47:31;;;;;;;7.43;1.80;;;;;;;;;;4991826;28;20209;-75
2021/04/25 10:49:59;;;;;;;3.37;1.27;;;;;;;;;;4990281;28;20178;-75
2021/04/25 10:52:35;;;;;;;4.43;1.43;;;;;;;;;;4990583;28;20183;-76
2021/04/25 10:55:14;;;;;;;3.37;1.67;;;;;;;;;;4988941;28;20989;-74
2021/04/25 11:00:34;;;;;;;3.63;1.50;;;;;;;;;;4992190;28;20559;-74
2021/04/25 11:03:04;;;;;;;4.77;1.43;;;;;;;;;;4987223;28;20624;-74
2021/04/25 11:05:36;;;;;;;7.20;1.43;;;;;;;;;;4988694;28;20262;-74
2021/04/25 11:08:22;;;;;;;5.60;1.73;;;;;;;;;;4984578;28;20256;-74
2021/04/25 11:11:09;;;;;;;5.60;1.60;;;;;;;;;;4984269;28;20218;-75
2021/04/25 11:13:35;;;;;;;8.00;1.80;;;;;;;;;;4968315;28;20203;-74
2021/04/25 11:16:02;;;;;;;7.07;1.60;;;;;;;;;;4980438;28;20557;-75
2021/04/25 11:18:45;;;;;;;5.47;1.67;;;;;;;;;;4980941;28;20206;-75
2021/04/25 11:23:53;;;;;;;5.77;1.70;;;;;;;;;;4986142;28;20188;-74
2021/04/25 11:26:34;;;;;;;4.43;1.70;;;;;;;;;;4984281;28;20175;-74
2021/04/25 11:29:21;;;;;;;5.57;1.77;;;;;;;;;;4984346;28;20226;-74
2021/04/25 11:34:29;;;;;;;5.73;1.70;;;;;;;;;;4979271;28;20290;-75
2021/04/25 11:37:01;;;;;;;4.63;1.80;;;;;;;;;;4988751;28;20195;-75
2021/04/25 11:39:33;;;;;;;5.93;1.70;;;;;;;;;;4983431;28;20175;-74
2021/04/25 11:41:59;;;;;;;4.10;1.47;;;;;;;;;;4991911;28;20663;-75
2021/04/25 11:44:26;;;;;;;4.20;1.50;;;;;;;;;;4991526;28;20832;-74
2021/04/25 11:46:52;;;;;;;4.97;1.80;;;;;;;;;;4980743;28;20802;-75
2021/04/25 11:49:18;;;;;;;4.47;1.63;;;;;;;;;;4990043;28;20188;-75
2021/04/25 11:51:44;;;;;;;7.63;1.90;;;;;;;;;;4977956;28;20212;-75
2021/04/25 11:54:19;;;;;;;7.73;1.77;;;;;;;;;;4983100;28;20222;-76
2021/04/25 11:56:45;;;;;;;5.57;1.97;;;;;;;;;;4990197;28;20254;-74
2021/04/25 11:59:12;;;;;;;4.83;1.83;;;;;;;;;;4991920;28;20688;-74
2021/04/25 12:01:38;;;;;;;6.77;1.70;;;;;;;;;;4992538;28;20186;-75
2021/04/25 12:04:04;;;;;;;4.83;1.80;;;;;;;;;;4978861;28;20184;-75
2021/04/25 12:06:49;;;;;;;6.93;1.77;;;;;;;;;;4974111;28;20180;-75
2021/04/25 12:09:18;;;;;;;4.27;1.63;;;;;;;;;;4985076;28;20203;-75
2021/04/25 12:11:44;;;;;;;8.13;2.00;;;;;;;;;;4993909;28;20631;-75
2021/04/25 12:14:20;;;;;;;6.60;1.70;;;;;;;;;;4993738;28;20266;-75
2021/04/25 12:16:46;;;;;;;7.33;1.50;;;;;;;;;;4978044;28;20188;-75
2021/04/25 12:19:20;;;;;;;5.97;1.87;;;;;;;;;;4994529;28;20576;-76
2021/04/25 12:21:46;;;;;;;5.07;1.80;;;;;;;;;;4980018;28;20219;-75
2021/04/25 12:24:11;;;;;;;6.57;1.80;;;;;;;;;;4975445;28;20188;-76
2021/04/25 12:26:42;;;;;;;5.23;1.80;;;;;;;;;;4974513;28;20180;-76
2021/04/25 12:29:08;;;;;;;5.00;1.90;;;;;;;;;;4993550;28;20222;-76
2021/04/25 12:31:42;;;;;;;5.33;1.80;;;;;;;;;;4977913;28;20270;-77
2021/04/25 12:34:08;;;;;;;5.33;1.83;;;;;;;;;;4979574;28;20219;-76
2021/04/25 12:36:34;;;;;;;7.93;1.90;;;;;;;;;;4979104;28;20191;-78
2021/04/25 12:39:00;;;;;;;5.20;1.80;;;;;;;;;;4977602;28;20226;-76
2021/04/25 12:41:26;;;;;;;4.27;1.63;;;;;;;;;;4994518;28;20181;-75
2021/04/25 12:43:52;;;;;;;5.50;2.00;;;;;;;;;;4993836;28;20180;-75
2021/04/25 12:46:28;;;;;;;6.07;1.97;;;;;;;;;;4993767;28;20207;-75
2021/04/25 12:48:54;;;;;;;5.27;1.60;;;;;;;;;;4993665;28;20257;-76
2021/04/25 12:51:21;;;;;;;4.17;1.77;;;;;;;;;;4993548;28;20190;-76
2021/04/25 12:53:59;;;;;;;4.57;2.00;;;;;;;;;;4980725;28;20195;-76
2021/04/25 12:56:34;;;;;;;3.63;1.60;;;;;;;;;;4963888;28;20601;-79
2021/04/25 12:59:01;;;;;;;4.93;1.60;;;;;;;;;;4976794;28;20208;-79
2021/04/25 13:01:28;;;;;;;5.43;1.90;;;;;;;;;;4967211;28;20181;-77
2021/04/25 13:03:54;;;;;;;3.80;1.70;;;;;;;;;;4978180;28;20180;-76
2021/04/25 13:06:24;;;;;;;8.27;2.13;;;;;;;;;;4982310;28;20278;-75
2021/04/25 13:08:55;;;;;;;3.93;1.40;;;;;;;;;;4981107;28;20645;-79
2021/04/25 13:11:36;;;;;;;5.87;1.80;;;;;;;;;;4995485;28;20287;-77
2021/04/25 13:14:09;;;;;;;4.33;1.80;;;;;;;;;;4979253;28;20194;-77
2021/04/25 13:16:35;;;;;;;3.97;1.60;;;;;;;;;;4978212;28;20181;-75
2021/04/25 13:19:01;;;;;;;4.70;1.90;;;;;;;;;;4978541;28;20210;-76
2021/04/25 13:21:40;;;;;;;6.73;2.10;;;;;;;;;;4977584;28;20271;-76
2021/04/25 13:24:10;;;;;;;5.13;1.70;;;;;;;;;;4990895;28;20219;-78
2021/04/25 13:26:36;;;;;;;4.80;1.70;;;;;;;;;;4958226;28;20184;-77
2021/04/25 13:29:02;;;;;;;5.30;1.80;;;;;;;;;;4981837;28;20269;-77
2021/04/25 13:31:28;;;;;;;5.80;1.63;;;;;;;;;;4975137;28;20647;-78
2021/04/25 13:33:54;;;;;;;4.53;1.67;;;;;;;;;;4980884;28;20198;-77
2021/04/25 13:36:21;;;;;;;4.73;1.40;;;;;;;;;;4966317;28;20177;-76
2021/04/25 13:38:47;;;;;;;5.47;1.83;;;;;;;;;;4992487;28;20595;-77
2021/04/25 13:41:13;;;;;;;4.40;1.70;;;;;;;;;;4974845;28;20180;-77
2021/04/25 13:43:39;;;;;;;5.87;1.60;;;;;;;;;;4973015;28;20601;-76
2021/04/25 13:46:05;;;;;;;4.37;1.50;;;;;;;;;;4973019;28;20180;-76
2021/04/25 13:48:31;;;;;;;7.80;1.60;;;;;;;;;;4956513;28;20205;-75
2021/04/25 13:50:57;;;;;;;7.73;1.80;;;;;;;;;;4956946;28;20184;-78
2021/04/25 13:53:23;;;;;;;7.07;1.70;;;;;;;;;;4974008;28;20187;-75
2021/04/25 13:55:49;;;;;;;5.80;1.90;;;;;;;;;;4972240;28;20276;-73
2021/04/25 13:58:15;;;;;;;5.67;1.60;;;;;;;;;;4972311;28;20204;-76
2021/04/25 14:00:41;;;;;;;8.10;2.07;;;;;;;;;;4972833;28;20252;-76
2021/04/25 14:03:08;;;;;;;18.37;8.90;;;;;;;;;;4956857;28;20589;-76
2021/04/25 14:05:34;;;;;;;6.40;2.17;;;;;;;;;;4960259;28;20200;-78
2021/04/25 14:08:00;;;;;;;4.33;1.50;;;;;;;;;;4959929;28;20211;-76
2021/04/25 14:10:27;;;;;;;6.10;1.90;;;;;;;;;;4973006;28;20557;-76
2021/04/25 14:12:53;;;;;;;4.30;1.43;;;;;;;;;;4991398;28;20187;-76
2021/04/25 14:15:19;;;;;;;4.93;1.70;;;;;;;;;;4991271;28;20194;-76
2021/04/25 14:17:48;;;;;;;4.70;1.70;;;;;;;;;;4974525;28;20214;-76
2021/04/25 14:20:15;;;;;;;5.63;2.00;;;;;;;;;;4973970;28;20275;-76
2021/04/25 14:22:40;;;;;;;4.00;1.50;;;;;;;;;;4991113;28;20176;-76
2021/04/25 14:25:07;;;;;;;2.83;1.57;;;;;;;;;;4975455;28;20183;-76
2021/04/25 14:27:33;;;;;;;4.10;1.43;;;;;;;;;;4975686;28;20222;-76
2021/04/25 14:29:59;;;;;;;4.27;1.63;;;;;;;;;;4992621;28;20214;-76
2021/04/25 14:32:25;;;;;;;4.87;1.60;;;;;;;;;;4993188;28;20218;-76
2021/04/25 14:34:50;;;;;;;5.97;2.03;;;;;;;;;;4976492;28;20188;-76
2021/04/25 14:37:16;;;;;;;5.83;1.50;;;;;;;;;;4979268;28;20714;-76
2021/04/25 14:39:42;;;;;;;6.40;1.83;;;;;;;;;;4991731;28;20702;-76
2021/04/25 14:42:08;;;;;;;4.17;1.80;;;;;;;;;;4975315;28;20589;-76
2021/04/25 14:44:35;;;;;;;4.33;1.50;;;;;;;;;;4991577;28;20533;-76
2021/04/25 14:47:00;;;;;;;3.80;1.50;;;;;;;;;;4991186;28;20172;-75
2021/04/25 14:49:26;;;;;;;7.50;1.90;;;;;;;;;;4992673;28;20192;-76